sensor_id;sensor_type;location;lat;lon;timestamp;pressure;altitude;pressure_sealevel;temperature;humidity
64053;BME280;50299;49.524;8.536;2023-07-22T00:01:25;100407.56;;;15.16;49.39
64053;BME280;50299;49.524;8.536;2023-07-22T00:03:52;100399.47;;;14.95;50.42
64053;BME280;50299;49.524;8.536;2023-07-22T00:06:18;100400.38;;;15.15;50.53
64053;BME280;50299;49.524;8.536;2023-07-22T00:08:45;100409.59;;;15.35;49.73
64053;BME280;50299;49.524;8.536;2023-07-22T00:11:11;100412.19;;;15.44;49.24
64053;BME280;50299;49.524;8.536;2023-07-22T00:13:38;100415.16;;;15.51;52.00
64053;BME280;50299;49.524;8.536;2023-07-22T00:16:04;100418.53;;;15.60;51.78
64053;BME280;50299;49.524;8.536;2023-07-22T00:18:30;100416.97;;;15.63;50.86
64053;BME280;50299;49.524;8.536;2023-07-22T00:20:57;100422.19;;;15.64;50.94
64053;BME280;50299;49.524;8.536;2023-07-22T00:23:23;100422.91;;;15.61;50.31
64053;BME280;50299;49.524;8.536;2023-07-22T00:25:50;100419.16;;;15.53;51.20
64053;BME280;50299;49.524;8.536;2023-07-22T00:28:17;100410.63;;;15.46;50.39
64053;BME280;50299;49.524;8.536;2023-07-22T00:30:44;100408.22;;;15.45;51.48
64053;BME280;50299;49.524;8.536;2023-07-22T00:33:11;100405.16;;;15.50;51.79
64053;BME280;50299;49.524;8.536;2023-07-22T00:35:38;100409.19;;;15.52;52.69
64053;BME280;50299;49.524;8.536;2023-07-22T00:38:05;100410.47;;;15.55;52.01
64053;BME280;50299;49.524;8.536;2023-07-22T00:40:31;100412.38;;;15.51;50.83
64053;BME280;50299;49.524;8.536;2023-07-22T00:45:25;100403.34;;;14.91;52.54
64053;BME280;50299;49.524;8.536;2023-07-22T00:47:51;100403.25;;;14.87;52.21
64053;BME280;50299;49.524;8.536;2023-07-22T00:50:19;100408.09;;;14.74;54.09
64053;BME280;50299;49.524;8.536;2023-07-22T00:52:45;100404.44;;;14.86;52.52
64053;BME280;50299;49.524;8.536;2023-07-22T00:55:12;100393.03;;;14.91;52.66
64053;BME280;50299;49.524;8.536;2023-07-22T00:57:38;100412.22;;;14.96;52.10
64053;BME280;50299;49.524;8.536;2023-07-22T01:00:05;100399.47;;;14.64;51.73
64053;BME280;50299;49.524;8.536;2023-07-22T01:02:32;100412.66;;;14.51;51.45
64053;BME280;50299;49.524;8.536;2023-07-22T01:05:01;100402.56;;;14.02;54.34
64053;BME280;50299;49.524;8.536;2023-07-22T01:07:36;100401.88;;;13.65;55.51
64053;BME280;50299;49.524;8.536;2023-07-22T01:10:08;100402.38;;;13.55;55.79
64053;BME280;50299;49.524;8.536;2023-07-22T01:12:35;100397.63;;;13.43;54.81
64053;BME280;50299;49.524;8.536;2023-07-22T01:15:02;100401.19;;;13.68;55.80
64053;BME280;50299;49.524;8.536;2023-07-22T01:17:34;100396.09;;;13.70;54.50
64053;BME280;50299;49.524;8.536;2023-07-22T01:20:02;100401.66;;;13.70;54.98
64053;BME280;50299;49.524;8.536;2023-07-22T01:22:29;100395.50;;;13.65;54.74
64053;BME280;50299;49.524;8.536;2023-07-22T01:24:56;100395.69;;;12.95;56.70
64053;BME280;50299;49.524;8.536;2023-07-22T01:27:24;100402.19;;;12.08;58.80
64053;BME280;50299;49.524;8.536;2023-07-22T01:29:51;100402.72;;;12.22;59.47
64053;BME280;50299;49.524;8.536;2023-07-22T01:32:18;100395.94;;;12.44;58.80
64053;BME280;50299;49.524;8.536;2023-07-22T01:34:46;100396.84;;;12.69;57.90
64053;BME280;50299;49.524;8.536;2023-07-22T01:37:12;100393.81;;;13.23;57.43
64053;BME280;50299;49.524;8.536;2023-07-22T01:39:39;100391.13;;;13.64;56.46
64053;BME280;50299;49.524;8.536;2023-07-22T01:42:05;100393.81;;;13.88;58.00
64053;BME280;50299;49.524;8.536;2023-07-22T01:44:32;100389.38;;;13.99;54.84
64053;BME280;50299;49.524;8.536;2023-07-22T01:47:02;100389.69;;;13.82;53.59
64053;BME280;50299;49.524;8.536;2023-07-22T01:49:29;100384.53;;;13.56;55.25
64053;BME280;50299;49.524;8.536;2023-07-22T01:51:55;100388.41;;;12.78;57.34
64053;BME280;50299;49.524;8.536;2023-07-22T01:54:22;100377.19;;;12.74;57.31
64053;BME280;50299;49.524;8.536;2023-07-22T01:56:48;100379.41;;;12.93;56.41
64053;BME280;50299;49.524;8.536;2023-07-22T01:59:15;100381.81;;;13.19;57.09
64053;BME280;50299;49.524;8.536;2023-07-22T02:01:41;100387.06;;;13.61;58.14
64053;BME280;50299;49.524;8.536;2023-07-22T02:04:08;100382.59;;;13.85;55.45
64053;BME280;50299;49.524;8.536;2023-07-22T02:06:35;100384.09;;;14.10;55.60
64053;BME280;50299;49.524;8.536;2023-07-22T02:09:02;100374.72;;;14.30;55.09
64053;BME280;50299;49.524;8.536;2023-07-22T02:11:35;100379.13;;;14.44;55.30
64053;BME280;50299;49.524;8.536;2023-07-22T02:14:02;100386.22;;;14.57;54.94
64053;BME280;50299;49.524;8.536;2023-07-22T02:16:36;100383.69;;;14.68;55.82
64053;BME280;50299;49.524;8.536;2023-07-22T02:19:03;100383.16;;;14.78;54.42
64053;BME280;50299;49.524;8.536;2023-07-22T02:21:30;100385.47;;;14.92;54.40
64053;BME280;50299;49.524;8.536;2023-07-22T02:23:56;100395.69;;;15.03;54.84
64053;BME280;50299;49.524;8.536;2023-07-22T02:26:23;100394.63;;;15.08;54.37
64053;BME280;50299;49.524;8.536;2023-07-22T02:28:50;100402.63;;;15.10;56.42
64053;BME280;50299;49.524;8.536;2023-07-22T02:31:17;100403.97;;;15.00;56.67
64053;BME280;50299;49.524;8.536;2023-07-22T02:33:43;100415.38;;;14.95;58.04
64053;BME280;50299;49.524;8.536;2023-07-22T02:36:10;100417.06;;;14.68;57.57
64053;BME280;50299;49.524;8.536;2023-07-22T02:38:36;100416.00;;;14.72;59.86
64053;BME280;50299;49.524;8.536;2023-07-22T02:41:06;100415.81;;;14.65;61.38
64053;BME280;50299;49.524;8.536;2023-07-22T02:43:34;100415.47;;;14.67;63.32
64053;BME280;50299;49.524;8.536;2023-07-22T02:46:02;100402.00;;;14.69;63.38
64053;BME280;50299;49.524;8.536;2023-07-22T02:48:30;100403.34;;;14.75;64.38
64053;BME280;50299;49.524;8.536;2023-07-22T02:51:07;100397.06;;;14.78;65.00
64053;BME280;50299;49.524;8.536;2023-07-22T02:53:34;100401.38;;;14.75;64.55
64053;BME280;50299;49.524;8.536;2023-07-22T02:56:03;100391.59;;;14.82;65.77
64053;BME280;50299;49.524;8.536;2023-07-22T02:58:30;100397.69;;;14.71;65.27
64053;BME280;50299;49.524;8.536;2023-07-22T03:00:56;100399.56;;;14.67;65.02
64053;BME280;50299;49.524;8.536;2023-07-22T03:03:26;100400.03;;;14.69;65.46
64053;BME280;50299;49.524;8.536;2023-07-22T03:05:52;100398.50;;;14.72;66.16
64053;BME280;50299;49.524;8.536;2023-07-22T03:08:19;100396.50;;;14.72;66.98
64053;BME280;50299;49.524;8.536;2023-07-22T03:10:46;100389.00;;;14.57;64.57
64053;BME280;50299;49.524;8.536;2023-07-22T03:13:15;100384.66;;;14.60;66.56
64053;BME280;50299;49.524;8.536;2023-07-22T03:15:42;100387.19;;;14.49;63.46
64053;BME280;50299;49.524;8.536;2023-07-22T03:18:08;100372.50;;;14.20;64.43
64053;BME280;50299;49.524;8.536;2023-07-22T03:20:37;100379.19;;;14.03;64.48
64053;BME280;50299;49.524;8.536;2023-07-22T03:23:05;100381.25;;;13.78;65.48
64053;BME280;50299;49.524;8.536;2023-07-22T03:25:33;100383.34;;;13.69;66.33
64053;BME280;50299;49.524;8.536;2023-07-22T03:28:02;100386.84;;;13.66;67.89
64053;BME280;50299;49.524;8.536;2023-07-22T03:30:30;100386.66;;;13.87;66.89
64053;BME280;50299;49.524;8.536;2023-07-22T03:32:57;100382.97;;;14.11;67.56
64053;BME280;50299;49.524;8.536;2023-07-22T03:35:24;100384.78;;;14.19;65.93
64053;BME280;50299;49.524;8.536;2023-07-22T03:37:50;100392.59;;;14.29;65.33
64053;BME280;50299;49.524;8.536;2023-07-22T03:40:16;100386.28;;;14.45;67.22
64053;BME280;50299;49.524;8.536;2023-07-22T03:42:49;100386.22;;;14.57;68.06
64053;BME280;50299;49.524;8.536;2023-07-22T03:45:17;100386.47;;;14.52;65.57
64053;BME280;50299;49.524;8.536;2023-07-22T03:47:44;100390.97;;;14.57;68.71
64053;BME280;50299;49.524;8.536;2023-07-22T03:50:12;100394.91;;;14.40;66.76
64053;BME280;50299;49.524;8.536;2023-07-22T03:52:39;100398.66;;;14.47;69.14
64053;BME280;50299;49.524;8.536;2023-07-22T03:55:05;100399.66;;;14.55;69.02
64053;BME280;50299;49.524;8.536;2023-07-22T03:57:32;100406.00;;;14.55;67.67
64053;BME280;50299;49.524;8.536;2023-07-22T04:00:02;100410.44;;;14.57;66.51
64053;BME280;50299;49.524;8.536;2023-07-22T04:02:30;100402.81;;;14.53;65.99
64053;BME280;50299;49.524;8.536;2023-07-22T04:04:56;100399.66;;;14.55;67.32
64053;BME280;50299;49.524;8.536;2023-07-22T04:07:23;100399.75;;;14.59;67.32
64053;BME280;50299;49.524;8.536;2023-07-22T04:09:50;100398.56;;;14.60;66.88
64053;BME280;50299;49.524;8.536;2023-07-22T04:12:16;100404.22;;;14.63;66.69
64053;BME280;50299;49.524;8.536;2023-07-22T04:14:43;100397.13;;;14.50;63.22
64053;BME280;50299;49.524;8.536;2023-07-22T04:17:09;100397.09;;;14.34;65.36
64053;BME280;50299;49.524;8.536;2023-07-22T04:19:36;100401.09;;;14.49;68.84
64053;BME280;50299;49.524;8.536;2023-07-22T04:22:03;100404.78;;;14.53;66.55
64053;BME280;50299;49.524;8.536;2023-07-22T04:24:31;100399.84;;;14.62;69.20
64053;BME280;50299;49.524;8.536;2023-07-22T04:26:58;100399.75;;;14.59;65.74
64053;BME280;50299;49.524;8.536;2023-07-22T04:29:24;100394.38;;;14.66;67.34
64053;BME280;50299;49.524;8.536;2023-07-22T04:31:51;100389.41;;;14.59;66.82
64053;BME280;50299;49.524;8.536;2023-07-22T04:34:17;100397.59;;;14.68;67.98
64053;BME280;50299;49.524;8.536;2023-07-22T04:36:44;100396.97;;;14.74;69.02
64053;BME280;50299;49.524;8.536;2023-07-22T04:39:10;100393.19;;;14.83;68.65
64053;BME280;50299;49.524;8.536;2023-07-22T04:41:38;100395.44;;;14.93;67.93
64053;BME280;50299;49.524;8.536;2023-07-22T04:44:05;100392.19;;;15.07;69.45
64053;BME280;50299;49.524;8.536;2023-07-22T04:46:31;100389.66;;;14.10;64.00
64053;BME280;50299;49.524;8.536;2023-07-22T04:48:58;100389.22;;;14.08;69.95
64053;BME280;50299;49.524;8.536;2023-07-22T04:51:24;100388.19;;;14.57;69.59
64053;BME280;50299;49.524;8.536;2023-07-22T04:53:51;100388.53;;;14.87;68.88
64053;BME280;50299;49.524;8.536;2023-07-22T04:56:17;100400.91;;;15.05;67.35
64053;BME280;50299;49.524;8.536;2023-07-22T04:58:44;100399.94;;;15.13;64.37
64053;BME280;50299;49.524;8.536;2023-07-22T05:01:10;100401.88;;;15.28;66.36
64053;BME280;50299;49.524;8.536;2023-07-22T05:03:37;100398.91;;;15.37;65.54
64053;BME280;50299;49.524;8.536;2023-07-22T05:06:03;100399.34;;;15.39;65.23
64053;BME280;50299;49.524;8.536;2023-07-22T05:08:30;100398.09;;;15.37;64.87
64053;BME280;50299;49.524;8.536;2023-07-22T05:10:56;100401.59;;;15.34;63.96
64053;BME280;50299;49.524;8.536;2023-07-22T05:13:23;100401.88;;;15.28;64.33
64053;BME280;50299;49.524;8.536;2023-07-22T05:15:50;100403.28;;;15.38;66.19
64053;BME280;50299;49.524;8.536;2023-07-22T05:18:17;100406.63;;;15.44;65.35
64053;BME280;50299;49.524;8.536;2023-07-22T05:20:43;100407.50;;;15.48;64.39
64053;BME280;50299;49.524;8.536;2023-07-22T05:23:11;100407.91;;;15.31;64.47
64053;BME280;50299;49.524;8.536;2023-07-22T05:25:37;100410.97;;;15.25;64.77
64053;BME280;50299;49.524;8.536;2023-07-22T05:28:04;100409.84;;;15.46;66.38
64053;BME280;50299;49.524;8.536;2023-07-22T05:30:30;100414.25;;;15.47;64.81
64053;BME280;50299;49.524;8.536;2023-07-22T05:33:01;100415.41;;;15.46;65.06
64053;BME280;50299;49.524;8.536;2023-07-22T05:35:28;100423.38;;;15.63;65.92
64053;BME280;50299;49.524;8.536;2023-07-22T05:37:54;100420.00;;;15.73;64.87
64053;BME280;50299;49.524;8.536;2023-07-22T05:40:21;100422.72;;;15.89;62.94
64053;BME280;50299;49.524;8.536;2023-07-22T05:42:47;100430.25;;;16.05;63.85
64053;BME280;50299;49.524;8.536;2023-07-22T05:45:14;100430.09;;;16.17;62.95
64053;BME280;50299;49.524;8.536;2023-07-22T05:47:42;100435.56;;;16.33;61.69
64053;BME280;50299;49.524;8.536;2023-07-22T05:50:09;100430.84;;;16.56;62.25
64053;BME280;50299;49.524;8.536;2023-07-22T05:52:35;100430.16;;;16.63;58.54
64053;BME280;50299;49.524;8.536;2023-07-22T05:55:02;100430.13;;;16.40;56.91
64053;BME280;50299;49.524;8.536;2023-07-22T05:57:28;100431.00;;;16.44;60.65
64053;BME280;50299;49.524;8.536;2023-07-22T05:59:57;100430.91;;;16.79;61.42
64053;BME280;50299;49.524;8.536;2023-07-22T06:02:34;100429.97;;;16.71;55.56
64053;BME280;50299;49.524;8.536;2023-07-22T06:05:00;100430.09;;;16.59;59.18
64053;BME280;50299;49.524;8.536;2023-07-22T06:07:30;100438.75;;;16.73;57.82
64053;BME280;50299;49.524;8.536;2023-07-22T06:09:58;100445.09;;;16.70;55.35
64053;BME280;50299;49.524;8.536;2023-07-22T06:12:24;100433.97;;;16.32;57.22
64053;BME280;50299;49.524;8.536;2023-07-22T06:14:56;100440.72;;;16.50;56.73
64053;BME280;50299;49.524;8.536;2023-07-22T06:17:23;100445.72;;;16.64;56.84
64053;BME280;50299;49.524;8.536;2023-07-22T06:19:50;100454.53;;;17.08;56.45
64053;BME280;50299;49.524;8.536;2023-07-22T06:22:16;100443.47;;;17.15;54.15
64053;BME280;50299;49.524;8.536;2023-07-22T06:24:45;100450.97;;;16.65;55.20
64053;BME280;50299;49.524;8.536;2023-07-22T06:27:12;100447.69;;;16.40;55.01
64053;BME280;50299;49.524;8.536;2023-07-22T06:29:39;100448.81;;;15.97;56.83
64053;BME280;50299;49.524;8.536;2023-07-22T06:32:06;100455.25;;;15.66;56.88
64053;BME280;50299;49.524;8.536;2023-07-22T06:34:35;100451.59;;;15.97;57.75
64053;BME280;50299;49.524;8.536;2023-07-22T06:37:01;100445.88;;;15.74;57.46
64053;BME280;50299;49.524;8.536;2023-07-22T06:39:28;100456.41;;;15.81;57.68
64053;BME280;50299;49.524;8.536;2023-07-22T06:41:54;100460.69;;;16.13;58.91
64053;BME280;50299;49.524;8.536;2023-07-22T06:44:21;100464.72;;;16.35;54.86
64053;BME280;50299;49.524;8.536;2023-07-22T06:46:47;100467.66;;;16.03;54.61
64053;BME280;50299;49.524;8.536;2023-07-22T06:49:14;100459.63;;;16.41;56.66
64053;BME280;50299;49.524;8.536;2023-07-22T06:51:40;100471.44;;;16.53;54.68
64053;BME280;50299;49.524;8.536;2023-07-22T06:54:07;100468.78;;;16.80;55.46
64053;BME280;50299;49.524;8.536;2023-07-22T06:56:33;100476.13;;;16.88;53.79
64053;BME280;50299;49.524;8.536;2023-07-22T06:59:00;100475.00;;;16.93;54.22
64053;BME280;50299;49.524;8.536;2023-07-22T07:01:27;100477.59;;;17.05;52.85
64053;BME280;50299;49.524;8.536;2023-07-22T07:03:53;100471.38;;;17.38;55.20
64053;BME280;50299;49.524;8.536;2023-07-22T07:06:20;100469.50;;;17.46;54.70
64053;BME280;50299;49.524;8.536;2023-07-22T07:08:46;100470.72;;;17.75;54.36
64053;BME280;50299;49.524;8.536;2023-07-22T07:11:13;100464.53;;;17.89;54.16
64053;BME280;50299;49.524;8.536;2023-07-22T07:13:39;100465.53;;;18.04;51.11
64053;BME280;50299;49.524;8.536;2023-07-22T07:16:28;100468.16;;;18.19;51.95
64053;BME280;50299;49.524;8.536;2023-07-22T07:18:56;100476.44;;;18.12;51.28
64053;BME280;50299;49.524;8.536;2023-07-22T07:21:25;100479.44;;;18.27;50.07
64053;BME280;50299;49.524;8.536;2023-07-22T07:23:52;100478.72;;;18.03;49.71
64053;BME280;50299;49.524;8.536;2023-07-22T07:26:20;100477.00;;;17.68;52.93
64053;BME280;50299;49.524;8.536;2023-07-22T07:28:47;100480.41;;;17.81;52.79
64053;BME280;50299;49.524;8.536;2023-07-22T07:31:13;100486.59;;;17.94;51.60
64053;BME280;50299;49.524;8.536;2023-07-22T07:33:40;100488.25;;;17.72;50.40
64053;BME280;50299;49.524;8.536;2023-07-22T07:36:06;100480.47;;;17.58;51.37
64053;BME280;50299;49.524;8.536;2023-07-22T07:38:33;100478.72;;;17.76;51.99
64053;BME280;50299;49.524;8.536;2023-07-22T07:41:02;100482.16;;;17.93;51.37
64053;BME280;50299;49.524;8.536;2023-07-22T07:43:32;100476.72;;;17.73;50.42
64053;BME280;50299;49.524;8.536;2023-07-22T07:46:17;100481.13;;;18.05;50.10
64053;BME280;50299;49.524;8.536;2023-07-22T07:48:49;100479.09;;;18.32;49.59
64053;BME280;50299;49.524;8.536;2023-07-22T07:51:17;100476.75;;;18.37;47.99
64053;BME280;50299;49.524;8.536;2023-07-22T07:53:45;100474.09;;;18.48;49.14
64053;BME280;50299;49.524;8.536;2023-07-22T07:56:13;100482.25;;;18.64;49.51
64053;BME280;50299;49.524;8.536;2023-07-22T07:58:40;100482.03;;;18.80;48.53
64053;BME280;50299;49.524;8.536;2023-07-22T08:01:07;100483.63;;;19.21;47.91
64053;BME280;50299;49.524;8.536;2023-07-22T08:03:35;100480.72;;;19.59;46.96
64053;BME280;50299;49.524;8.536;2023-07-22T08:06:02;100486.34;;;19.66;45.62
64053;BME280;50299;49.524;8.536;2023-07-22T08:08:29;100481.53;;;19.11;43.72
64053;BME280;50299;49.524;8.536;2023-07-22T08:13:25;100478.19;;;20.05;43.36
64053;BME280;50299;49.524;8.536;2023-07-22T08:15:53;100487.06;;;20.14;44.85
64053;BME280;50299;49.524;8.536;2023-07-22T08:18:20;100482.56;;;20.03;44.35
64053;BME280;50299;49.524;8.536;2023-07-22T08:20:46;100484.34;;;20.32;45.24
64053;BME280;50299;49.524;8.536;2023-07-22T08:23:14;100484.00;;;20.55;44.00
64053;BME280;50299;49.524;8.536;2023-07-22T08:25:40;100482.47;;;20.76;43.40
64053;BME280;50299;49.524;8.536;2023-07-22T08:28:07;100485.72;;;21.24;42.74
64053;BME280;50299;49.524;8.536;2023-07-22T08:30:33;100488.94;;;21.58;43.14
64053;BME280;50299;49.524;8.536;2023-07-22T08:33:00;100484.13;;;21.23;40.43
64053;BME280;50299;49.524;8.536;2023-07-22T08:35:27;100487.72;;;21.06;41.70
64053;BME280;50299;49.524;8.536;2023-07-22T08:37:53;100481.22;;;20.62;38.85
64053;BME280;50299;49.524;8.536;2023-07-22T08:40:20;100483.44;;;20.10;41.57
64053;BME280;50299;49.524;8.536;2023-07-22T08:42:48;100484.34;;;20.39;41.58
64053;BME280;50299;49.524;8.536;2023-07-22T08:45:19;100476.88;;;20.93;40.54
64053;BME280;50299;49.524;8.536;2023-07-22T08:47:47;100486.13;;;21.33;39.47
64053;BME280;50299;49.524;8.536;2023-07-22T08:50:17;100483.72;;;21.64;38.43
64053;BME280;50299;49.524;8.536;2023-07-22T08:52:46;100482.50;;;21.68;38.23
64053;BME280;50299;49.524;8.536;2023-07-22T08:55:14;100481.69;;;21.64;40.33
64053;BME280;50299;49.524;8.536;2023-07-22T08:57:41;100481.22;;;21.80;38.95
64053;BME280;50299;49.524;8.536;2023-07-22T09:00:08;100472.88;;;21.44;38.61
64053;BME280;50299;49.524;8.536;2023-07-22T09:02:36;100478.88;;;20.86;38.46
64053;BME280;50299;49.524;8.536;2023-07-22T09:05:03;100467.66;;;20.86;39.47
64053;BME280;50299;49.524;8.536;2023-07-22T09:07:30;100477.69;;;20.94;39.73
64053;BME280;50299;49.524;8.536;2023-07-22T09:09:57;100469.25;;;20.98;38.86
64053;BME280;50299;49.524;8.536;2023-07-22T09:12:24;100470.06;;;21.12;39.77
64053;BME280;50299;49.524;8.536;2023-07-22T09:14:52;100466.06;;;21.46;36.98
64053;BME280;50299;49.524;8.536;2023-07-22T09:17:18;100459.13;;;21.86;37.14
64053;BME280;50299;49.524;8.536;2023-07-22T09:19:45;100454.13;;;22.33;37.07
64053;BME280;50299;49.524;8.536;2023-07-22T09:22:12;100455.88;;;22.79;36.68
64053;BME280;50299;49.524;8.536;2023-07-22T09:24:38;100456.72;;;22.76;35.00
64053;BME280;50299;49.524;8.536;2023-07-22T09:27:05;100447.56;;;23.13;34.30
64053;BME280;50299;49.524;8.536;2023-07-22T09:29:36;100447.72;;;23.44;35.09
64053;BME280;50299;49.524;8.536;2023-07-22T09:32:03;100440.16;;;23.33;34.20
64053;BME280;50299;49.524;8.536;2023-07-22T09:34:30;100445.81;;;23.71;33.65
64053;BME280;50299;49.524;8.536;2023-07-22T09:36:58;100451.47;;;24.05;31.90
64053;BME280;50299;49.524;8.536;2023-07-22T09:39:26;100444.34;;;23.94;33.70
64053;BME280;50299;49.524;8.536;2023-07-22T09:41:53;100448.19;;;24.10;31.96
64053;BME280;50299;49.524;8.536;2023-07-22T09:44:19;100436.66;;;24.59;32.78
64053;BME280;50299;49.524;8.536;2023-07-22T09:46:49;100436.59;;;25.36;31.72
64053;BME280;50299;49.524;8.536;2023-07-22T09:49:18;100433.13;;;26.12;29.79
64053;BME280;50299;49.524;8.536;2023-07-22T09:51:44;100439.41;;;26.40;28.61
64053;BME280;50299;49.524;8.536;2023-07-22T09:54:28;100425.44;;;26.13;28.14
64053;BME280;50299;49.524;8.536;2023-07-22T09:56:58;100435.44;;;25.77;26.41
64053;BME280;50299;49.524;8.536;2023-07-22T09:59:28;100433.19;;;25.69;28.88
64053;BME280;50299;49.524;8.536;2023-07-22T10:01:55;100430.06;;;26.23;28.57
64053;BME280;50299;49.524;8.536;2023-07-22T10:04:26;100414.59;;;26.64;28.22
64053;BME280;50299;49.524;8.536;2023-07-22T10:06:54;100414.41;;;26.54;27.39
64053;BME280;50299;49.524;8.536;2023-07-22T10:09:22;100413.78;;;25.67;27.22
64053;BME280;50299;49.524;8.536;2023-07-22T10:11:51;100406.91;;;25.01;27.90
64053;BME280;50299;49.524;8.536;2023-07-22T10:14:18;100414.25;;;25.22;27.91
64053;BME280;50299;49.524;8.536;2023-07-22T10:16:44;100413.81;;;25.47;29.07
64053;BME280;50299;49.524;8.536;2023-07-22T10:19:11;100413.72;;;25.71;28.43
64053;BME280;50299;49.524;8.536;2023-07-22T10:21:38;100409.66;;;25.52;26.33
64053;BME280;50299;49.524;8.536;2023-07-22T10:24:05;100406.81;;;24.85;27.53
64053;BME280;50299;49.524;8.536;2023-07-22T10:26:32;100409.34;;;24.76;27.62
64053;BME280;50299;49.524;8.536;2023-07-22T10:29:13;100397.91;;;24.32;28.96
64053;BME280;50299;49.524;8.536;2023-07-22T10:31:40;100394.59;;;24.07;28.64
64053;BME280;50299;49.524;8.536;2023-07-22T10:34:07;100395.09;;;23.26;29.42
64053;BME280;50299;49.524;8.536;2023-07-22T10:36:35;100398.19;;;22.94;30.23
64053;BME280;50299;49.524;8.536;2023-07-22T10:39:03;100389.22;;;22.54;30.25
64053;BME280;50299;49.524;8.536;2023-07-22T10:41:32;100397.44;;;22.86;30.84
64053;BME280;50299;49.524;8.536;2023-07-22T10:43:59;100393.63;;;23.07;30.47
64053;BME280;50299;49.524;8.536;2023-07-22T10:46:35;100391.88;;;23.65;29.96
64053;BME280;50299;49.524;8.536;2023-07-22T10:49:13;100395.91;;;23.64;29.02
64053;BME280;50299;49.524;8.536;2023-07-22T10:51:40;100389.56;;;23.12;29.98
64053;BME280;50299;49.524;8.536;2023-07-22T10:54:14;100393.56;;;23.56;30.07
64053;BME280;50299;49.524;8.536;2023-07-22T10:56:43;100390.25;;;23.27;29.15
64053;BME280;50299;49.524;8.536;2023-07-22T10:59:11;100386.22;;;23.28;30.44
64053;BME280;50299;49.524;8.536;2023-07-22T11:01:39;100383.75;;;23.33;31.03
64053;BME280;50299;49.524;8.536;2023-07-22T11:11:55;100373.03;;;24.74;28.41
64053;BME280;50299;49.524;8.536;2023-07-22T11:14:25;100377.47;;;25.22;28.45
64053;BME280;50299;49.524;8.536;2023-07-22T11:16:53;100374.09;;;24.84;26.91
64053;BME280;50299;49.524;8.536;2023-07-22T11:19:22;100373.75;;;24.55;26.93
64053;BME280;50299;49.524;8.536;2023-07-22T11:21:51;100375.06;;;24.47;28.06
64053;BME280;50299;49.524;8.536;2023-07-22T11:24:18;100371.16;;;24.64;27.49
64053;BME280;50299;49.524;8.536;2023-07-22T11:26:49;100358.44;;;25.03;29.11
64053;BME280;50299;49.524;8.536;2023-07-22T11:29:16;100366.13;;;25.46;26.08
64053;BME280;50299;49.524;8.536;2023-07-22T11:31:44;100358.28;;;25.53;26.64
64053;BME280;50299;49.524;8.536;2023-07-22T11:34:14;100353.63;;;25.83;26.71
64053;BME280;50299;49.524;8.536;2023-07-22T11:36:41;100340.19;;;26.59;26.94
64053;BME280;50299;49.524;8.536;2023-07-22T11:39:10;100343.97;;;26.69;25.51
64053;BME280;50299;49.524;8.536;2023-07-22T11:41:37;100326.34;;;27.23;25.60
64053;BME280;50299;49.524;8.536;2023-07-22T11:44:11;100332.88;;;27.66;24.42
64053;BME280;50299;49.524;8.536;2023-07-22T11:46:57;100328.44;;;26.41;24.30
64053;BME280;50299;49.524;8.536;2023-07-22T11:49:33;100327.28;;;26.22;25.01
64053;BME280;50299;49.524;8.536;2023-07-22T11:54:39;100326.28;;;25.76;25.53
64053;BME280;50299;49.524;8.536;2023-07-22T11:57:13;100321.25;;;25.24;26.51
64053;BME280;50299;49.524;8.536;2023-07-22T11:59:46;100317.16;;;25.05;26.82
64053;BME280;50299;49.524;8.536;2023-07-22T12:02:18;100316.09;;;24.52;26.27
64053;BME280;50299;49.524;8.536;2023-07-22T12:04:52;100314.59;;;24.44;27.01
64053;BME280;50299;49.524;8.536;2023-07-22T12:09:55;100301.97;;;23.33;27.58
64053;BME280;50299;49.524;8.536;2023-07-22T12:12:32;100311.16;;;23.72;27.30
64053;BME280;50299;49.524;8.536;2023-07-22T12:15:25;100304.25;;;24.07;26.23
64053;BME280;50299;49.524;8.536;2023-07-22T12:20:18;100306.91;;;24.18;25.40
64053;BME280;50299;49.524;8.536;2023-07-22T12:22:45;100294.31;;;24.49;26.64
64053;BME280;50299;49.524;8.536;2023-07-22T12:25:11;100291.50;;;24.96;24.04
64053;BME280;50299;49.524;8.536;2023-07-22T12:27:38;100282.22;;;24.49;24.85
64053;BME280;50299;49.524;8.536;2023-07-22T12:30:05;100281.44;;;24.21;25.13
64053;BME280;50299;49.524;8.536;2023-07-22T12:32:33;100280.44;;;24.08;23.63
64053;BME280;50299;49.524;8.536;2023-07-22T12:34:59;100286.34;;;23.59;27.73
64053;BME280;50299;49.524;8.536;2023-07-22T12:37:26;100282.28;;;23.60;24.57
64053;BME280;50299;49.524;8.536;2023-07-22T12:39:52;100283.16;;;23.88;24.70
64053;BME280;50299;49.524;8.536;2023-07-22T12:42:19;100282.88;;;24.06;24.20
64053;BME280;50299;49.524;8.536;2023-07-22T12:44:45;100278.72;;;24.65;22.97
64053;BME280;50299;49.524;8.536;2023-07-22T12:47:12;100269.88;;;24.12;23.19
64053;BME280;50299;49.524;8.536;2023-07-22T12:49:39;100272.31;;;24.10;24.21
64053;BME280;50299;49.524;8.536;2023-07-22T12:52:06;100268.84;;;24.53;23.47
64053;BME280;50299;49.524;8.536;2023-07-22T12:54:35;100254.41;;;23.35;24.76
64053;BME280;50299;49.524;8.536;2023-07-22T12:57:02;100259.88;;;23.12;25.29
64053;BME280;50299;49.524;8.536;2023-07-22T12:59:29;100265.78;;;24.17;24.59
64053;BME280;50299;49.524;8.536;2023-07-22T13:01:55;100254.19;;;24.81;22.98
64053;BME280;50299;49.524;8.536;2023-07-22T13:04:24;100255.00;;;24.82;23.84
64053;BME280;50299;49.524;8.536;2023-07-22T13:06:51;100253.53;;;24.50;22.93
64053;BME280;50299;49.524;8.536;2023-07-22T13:09:18;100251.34;;;24.85;22.77
64053;BME280;50299;49.524;8.536;2023-07-22T13:11:45;100251.28;;;24.42;23.11
64053;BME280;50299;49.524;8.536;2023-07-22T13:14:12;100256.69;;;23.78;23.24